Details From KRDU - Raleigh Durham Intl
To KMSY - Louis Armstrong New Orleans Intl
Flight Number -
Tags Generated
Created
Modified
Stats Distance 677 nm / 1,254 km
Max Altitude 0 ft / 0 m
Waypoints 5
Social Downloads 2
Likes 0
Share VATSIM

Download

Looking for another format? Having issues loading an existing format? Contact us
Advertisement - Login to hide

Notes

Generated

Route

KRDU NUPBI MGM ALGER KMSY

ID Type Via Altitude Latitude Longitude Leg Dist Tot Dist Heading (true) Name
O KRDU APT - 0 ft / 0 m 35.87503˚ -78.78268˚ - 0 nm - -
NUPBI FIX - 0 ft / 0 m 34.14564˚ -82.55172˚ 212 nm 212 nm 242° / 240° -
MGM VOR - 0 ft / 0 m 32.22228˚ -86.31972˚ 221 nm 434 nm 240° / 238° MONTGOMERY VORTAC
ALGER FIX - 0 ft / 0 m 30.13384˚ -90.03110˚ 228 nm 662 nm 238° / 236° -
O KMSY APT - 0 ft / 0 m 29.99177˚ -90.25724˚ 14 nm 677 nm 234° / 234° Louis Armstrong New Orleans Intl

Altitude Profile

Advertisement - Login to hide

Weather


0- 5 10 15 20 25 30 35+ Temperature / ° C

Clouds and Precipitation
Forecast for 2017-12-11 00:00 UTC. Updated 2 hours ago

Ground ~20,000 ft ~40,000 ft Winds

KRDU

Details ICAO KRDU (RDU)
Name Raleigh Durham Intl
Region United States
Timezone America/New_York (UTC-5.0)
Stats Elevation 435 ft / 133 m (AMSL)
Location 35.875863° -78.785598°
Runways 3
Magnetic Variation 9.184° W

METAR

KRDU 102351Z 00000KT 10SM FEW250 00/M03 A3014 RMK AO2 SLP210 T00001028 10061 20000 51004 $

Decode

TAF

TAF KRDU 102320Z 1100/1124 22002KT P6SM SKC= TAF KRWI 102320Z 1100/1124 22003KT P6SM SKC

Decode

Departure Runways

ID Width Length Bearing (true) Bearing (mag) Surface Threshold Offset Overrun Length
05L 150 ft / 46 m 10,002 ft / 3,049 m 45.02° 54.20° Concrete 0 ft / 0 m 200 ft / 61 m
05R 150 ft / 46 m 7,503 ft / 2,287 m 45.01° 54.19° Asphalt 0 ft / 0 m 200 ft / 61 m
14 100 ft / 30 m 3,571 ft / 1,088 m 135.28° 144.46° Asphalt 0 ft / 0 m 0 ft / 0 m
23L 150 ft / 46 m 7,503 ft / 2,287 m 225.02° 234.20° Asphalt 0 ft / 0 m 200 ft / 61 m
23R 150 ft / 46 m 10,002 ft / 3,049 m 225.03° 234.21° Concrete 0 ft / 0 m 200 ft / 61 m
32 100 ft / 30 m 3,571 ft / 1,088 m 315.28° 324.46° Asphalt 0 ft / 0 m 0 ft / 0 m

KMSY

Details ICAO KMSY (MSY)
Name Louis Armstrong New Orleans Intl
Region United States
Timezone America/Chicago (UTC-6.0)
Stats Elevation 3 ft / 1 m (AMSL)
Location 29.993349° -90.257406°
Runways 2
Magnetic Variation 0.731° W

METAR

KMSY 102353Z 00000KT 10SM SCT200 09/04 A3033 RMK AO2 SLP275 T00940039 10167 20094 51001

Decode

TAF

TAF KMSY 102320Z 1100/1206 27005KT P6SM SKC FM112100 25009KT P6SM SKC

Decode

Destination Runways

ID Width Length Bearing (true) Bearing (mag) Surface Threshold Offset Overrun Length
01 150 ft / 46 m 7,021 ft / 2,140 m 15.41° 16.14° Concrete 0 ft / 0 m 600 ft / 183 m
10 150 ft / 46 m 10,090 ft / 3,075 m 105.55° 106.28° Concrete 0 ft / 0 m 400 ft / 122 m
19 150 ft / 46 m 7,021 ft / 2,140 m 195.41° 196.14° Concrete 0 ft / 0 m 600 ft / 183 m
28 150 ft / 46 m 10,090 ft / 3,075 m 285.57° 286.30° Concrete 305 ft / 93 m 249 ft / 76 m

Approach Navaids

Runway Type Ident Frequency Range Bearing (true) Bearing (mag) Slope Elevation
01 Localiser IJFI 111.70 MHz 18 nm / 33 km 15.41° 16.14° - 3 ft / 1 m (AMSL)
01 Glidescope IJFI 111.70 MHz 10 nm / 19 km 15.41° 16.14° 3.00° 3 ft / 1 m (AMSL)
01 DME IJFI 111.70 MHz 18 nm / 33 km - - - 4 ft / 1 m (AMSL)
10 Localiser IMSY 109.90 MHz 18 nm / 33 km 105.55° 106.29° - 3 ft / 1 m (AMSL)
10 Glidescope IMSY 109.90 MHz 10 nm / 19 km 105.56° 106.29° 2.80° 3 ft / 1 m (AMSL)
10 DME IMSY 109.90 MHz 18 nm / 33 km - - - 4 ft / 1 m (AMSL)
19 Localiser IONW 111.70 MHz 18 nm / 33 km 195.40° 196.13° - 2 ft / 1 m (AMSL)
19 DME IONW 111.70 MHz 18 nm / 33 km - - - 10 ft / 3 m (AMSL)
28 Localiser IHOX 109.90 MHz 18 nm / 33 km 285.55° 286.28° - 5 ft / 2 m (AMSL)
28 Glidescope IHOX 109.90 MHz 10 nm / 19 km 285.56° 286.29° 3.00° 2 ft / 1 m (AMSL)
28 DME IHOX 109.90 MHz 18 nm / 33 km - - - 4 ft / 1 m (AMSL)

Popular Alternatives